createdAt,value
2018-09-21T19:35:43.270Z,1010.35
2018-09-21T19:36:43.210Z,1010.41
2018-09-21T19:37:43.173Z,1010.39
2018-09-21T19:38:43.261Z,1010.46
2018-09-21T19:39:43.085Z,1010.43
2018-09-21T19:40:43.032Z,1010.47
2018-09-21T19:41:42.980Z,1010.47
2018-09-21T19:42:42.952Z,1010.49
2018-09-21T19:43:42.860Z,1010.48
2018-09-21T19:44:42.816Z,1010.42
2018-09-21T19:45:42.818Z,1010.45
2018-09-21T19:46:42.756Z,1010.57
2018-09-21T19:47:42.646Z,1010.45
2018-09-21T19:48:42.590Z,1010.46
2018-09-21T19:49:42.541Z,1010.50
2018-09-21T19:50:42.482Z,1010.45
2018-09-21T19:51:42.440Z,1010.44
2018-09-21T19:52:42.355Z,1010.41
2018-09-21T19:53:42.314Z,1010.52
2018-09-21T19:54:42.271Z,1010.44
2018-09-21T19:55:42.580Z,1010.52
2018-09-21T19:56:42.130Z,1010.51
2018-09-21T19:57:42.051Z,1010.50
2018-09-21T19:58:42.992Z,1010.51
2018-09-21T19:59:41.922Z,1010.55
2018-09-21T20:00:41.877Z,1010.52
2018-09-21T20:01:41.809Z,1010.55
2018-09-21T20:02:41.722Z,1010.55
2018-09-21T20:03:41.656Z,1010.55
2018-09-21T20:04:41.625Z,1010.57
2018-09-21T20:05:41.517Z,1010.59
2018-09-21T20:06:41.461Z,1010.61
2018-09-21T20:07:41.371Z,1010.63
2018-09-21T20:08:41.302Z,1010.63
2018-09-21T20:09:41.231Z,1010.64
2018-09-21T20:10:41.155Z,1010.66
2018-09-21T20:11:41.089Z,1010.60
2018-09-21T20:12:41.069Z,1010.67
2018-09-21T20:13:40.943Z,1010.75
2018-09-21T20:14:40.837Z,1010.78
2018-09-21T20:15:40.840Z,1010.81
2018-09-21T20:16:40.819Z,1010.79
